Time;durP1;ratioP1;P1;durP2;ratioP2;P2;SDS_P1;SDS_P2;PMS_P1;PMS_P2;Temp;Humidity;BMP_temperature;BMP_pressure;BME280_temperature;BME280_humidity;BME280_pressure;Samples;Min_cycle;Max_cycle;Signal;HPM_P1;HPM_P2
2021/09/21 00:01:08;;;;;;;6.35;3.78;;;7.40;99.90;;;;;;5047123;28;20124;-63
2021/09/21 00:03:34;;;;;;;8.07;3.60;;;7.30;99.90;;;;;;5061755;28;20037;-62
2021/09/21 00:06:00;;;;;;;;;;;7.40;99.90;;;;;;5062145;28;20060;-62
2021/09/21 00:08:29;;;;;;;5.32;3.58;;;7.40;99.90;;;;;;5062536;28;19924;-63
2021/09/21 00:10:56;;;;;;;9.27;3.50;;;7.30;99.90;;;;;;5059955;28;20043;-63
2021/09/21 00:13:22;;;;;;;6.50;3.40;;;7.20;99.90;;;;;;5054260;28;20540;-63
2021/09/21 00:15:47;;;;;;;;;;;7.20;99.90;;;;;;5061724;28;20047;-63
2021/09/21 00:18:13;;;;;;;7.47;2.80;;;7.10;99.90;;;;;;5051817;28;19916;-63
2021/09/21 00:20:38;;;;;;;;;;;7.10;99.90;;;;;;5049754;28;20037;-63
2021/09/21 00:23:04;;;;;;;7.45;3.75;;;7.20;99.90;;;;;;5048563;28;19936;-63
2021/09/21 00:25:29;;;;;;;;;;;7.20;99.90;;;;;;5049211;28;20051;-63
2021/09/21 00:27:55;;;;;;;6.97;3.75;;;7.20;99.90;;;;;;5048726;28;19913;-62
2021/09/21 00:30:21;;;;;;;;;;;7.10;99.90;;;;;;5048148;28;20051;-62
2021/09/21 00:32:50;;;;;;;5.65;3.38;;;7.00;99.90;;;;;;5048392;28;19916;-63
2021/09/21 00:35:16;;;;;;;8.02;3.75;;;7.00;99.90;;;;;;5048851;28;20453;-61
2021/09/21 00:37:41;;;;;;;4.93;3.30;;;7.00;99.90;;;;;;5046513;28;20568;-62
2021/09/21 00:40:08;;;;;;;;;;;7.00;99.90;;;;;;5048530;28;20123;-63
2021/09/21 00:42:33;;;;;;;6.88;3.70;;;7.00;99.90;;;;;;5047700;28;19917;-63
2021/09/21 00:45:08;;;;;;;;;;;7.10;99.90;;;;;;5047072;28;20037;-62
2021/09/21 00:47:33;;;;;;;6.38;3.40;;;7.10;99.90;;;;;;5047005;28;20015;-60
2021/09/21 00:49:59;;;;;;;;;;;6.90;99.90;;;;;;5048958;28;20144;-62
2021/09/21 00:52:25;;;;;;;6.88;3.47;;;6.90;99.90;;;;;;5048052;28;20435;-63
2021/09/21 00:54:50;;;;;;;;;;;6.90;99.90;;;;;;5048775;28;20505;-63
2021/09/21 00:57:16;;;;;;;5.47;3.47;;;6.90;99.90;;;;;;5047925;28;19923;-62
2021/09/21 00:59:43;;;;;;;;;;;6.80;99.90;;;;;;5047934;28;20652;-62
2021/09/21 01:02:08;;;;;;;7.88;3.50;;;6.80;99.90;;;;;;5046635;28;20395;-62
2021/09/21 01:04:35;;;;;;;;;;;6.90;99.90;;;;;;5048924;28;20041;-61
2021/09/21 01:07:00;;;;;;;8.90;2.90;;;6.90;99.90;;;;;;5043216;28;19921;-62
2021/09/21 01:09:28;;;;;;;;;;;7.00;99.90;;;;;;5028939;28;20555;-63
2021/09/21 01:11:56;;;;;;;10.07;3.60;;;7.10;99.90;;;;;;5027670;28;19972;-62
2021/09/21 01:14:23;;;;;;;7.55;3.90;;;7.10;99.90;;;;;;5027824;28;20411;-63
2021/09/21 01:16:50;;;;;;;7.35;3.72;;;7.00;99.90;;;;;;5026201;28;20045;-62
2021/09/21 01:19:16;;;;;;;5.90;3.65;;;7.10;99.90;;;;;;5027997;28;20052;-62
2021/09/21 01:21:42;;;;;;;;;;;7.00;99.90;;;;;;5028576;28;20048;-62
2021/09/21 01:24:09;;;;;;;9.70;3.65;;;7.10;99.90;;;;;;5028290;28;19921;-62
2021/09/21 01:26:35;;;;;;;6.85;3.42;;;7.00;99.90;;;;;;5027758;28;20080;-63
2021/09/21 01:29:01;;;;;;;;;;;7.00;99.90;;;;;;5027153;28;20076;-62
2021/09/21 01:31:26;;;;;;;6.63;3.28;;;7.00;99.90;;;;;;5025205;28;19983;-62
2021/09/21 01:33:53;;;;;;;5.97;3.30;;;7.10;99.90;;;;;;5027275;28;20100;-62
2021/09/21 01:36:22;;;;;;;3.85;2.70;;;7.20;99.90;;;;;;5021468;28;20042;-61
2021/09/21 01:38:48;;;;;;;4.97;3.25;;;7.20;99.90;;;;;;5027761;28;20536;-62
2021/09/21 01:41:14;;;;;;;5.63;3.90;;;7.20;99.90;;;;;;5025943;28;20039;-62
2021/09/21 01:43:42;;;;;;;;;;;7.10;99.90;;;;;;5027343;28;20038;-62
2021/09/21 01:46:08;;;;;;;8.55;4.47;;;7.10;99.90;;;;;;5025969;28;20356;-62
2021/09/21 01:48:33;;;;;;;;;;;7.10;99.90;;;;;;5028098;28;20049;-62
2021/09/21 01:51:02;;;;;;;6.93;2.85;;;7.20;99.90;;;;;;5026984;28;20008;-62
2021/09/21 01:58:52;;;;;;;6.45;3.53;;;7.10;99.90;;;;;;5026326;28;20482;-63
2021/09/21 02:01:26;;;;;;;6.65;3.08;;;7.20;99.90;;;;;;5025882;28;20034;-62
2021/09/21 02:03:57;;;;;;;6.03;3.15;;;7.20;99.90;;;;;;5027566;28;20099;-62
2021/09/21 02:06:35;;;;;;;7.47;3.08;;;7.20;99.90;;;;;;5022616;28;20401;-62
2021/09/21 02:09:03;;;;;;;6.97;2.90;;;7.30;99.90;;;;;;5033789;28;20049;-62
2021/09/21 02:11:28;;;;;;;7.65;2.97;;;7.20;99.90;;;;;;5026504;28;20436;-60
2021/09/21 02:13:57;;;;;;;;;;;7.30;99.90;;;;;;5026334;28;20046;-62
2021/09/21 02:16:27;;;;;;;8.18;2.80;;;7.20;99.90;;;;;;5025823;28;19917;-62
2021/09/21 02:18:52;;;;;;;8.45;3.53;;;7.30;99.90;;;;;;5018714;28;20046;-62
2021/09/21 02:21:18;;;;;;;;;;;7.30;99.90;;;;;;5022419;28;20386;-62
2021/09/21 02:23:44;;;;;;;6.20;3.22;;;7.20;99.90;;;;;;5026827;28;19923;-61
2021/09/21 02:26:10;;;;;;;5.68;3.72;;;7.30;99.90;;;;;;5025915;28;20053;-62
2021/09/21 02:28:36;;;;;;;;;;;7.40;99.90;;;;;;5026676;28;20095;-62
2021/09/21 02:31:01;;;;;;;5.07;3.70;;;7.30;99.90;;;;;;5024822;28;19917;-62
2021/09/21 02:33:27;;;;;;;;;;;7.40;99.90;;;;;;5026935;28;20041;-62
2021/09/21 02:35:52;;;;;;;26.52;13.07;;;7.40;99.90;;;;;;5026118;28;20062;-62
2021/09/21 02:38:18;;;;;;;;;;;7.40;99.90;;;;;;5035050;28;20038;-62
2021/09/21 02:40:43;;;;;;;9.95;4.65;;;7.40;99.90;;;;;;5040909;28;19920;-61
2021/09/21 02:43:09;;;;;;;12.52;4.28;;;7.40;99.90;;;;;;5045677;28;20041;-63
2021/09/21 02:45:35;;;;;;;;;;;7.40;99.90;;;;;;5046123;28;20068;-62
2021/09/21 02:48:00;;;;;;;5.95;3.75;;;7.40;99.90;;;;;;5046920;28;19925;-60
2021/09/21 02:50:26;;;;;;;;;;;7.40;99.90;;;;;;5046567;28;20492;-62
2021/09/21 02:52:53;;;;;;;6.50;3.22;;;7.40;99.90;;;;;;5046471;28;19924;-62
2021/09/21 02:55:19;;;;;;;8.88;3.50;;;7.40;99.90;;;;;;5046456;28;20041;-61
2021/09/21 02:57:45;;;;;;;;;;;7.40;99.90;;;;;;5046100;28;20123;-61
2021/09/21 03:00:13;;;;;;;4.57;2.97;;;7.40;99.90;;;;;;5044620;28;20415;-62
2021/09/21 03:02:41;;;;;;;8.52;4.00;;;7.40;99.90;;;;;;5045107;28;20045;-63
2021/09/21 03:05:10;;;;;;;8.38;3.67;;;7.40;99.90;;;;;;5046132;28;20045;-62
2021/09/21 03:07:46;;;;;;;6.15;3.50;;;7.50;99.90;;;;;;5041968;28;20114;-62
2021/09/21 03:10:23;;;;;;;6.43;3.35;;;7.50;99.90;;;;;;5037343;28;20107;-62
2021/09/21 03:18:23;;;;;;;4.32;2.90;;;7.60;99.90;;;;;;4984266;28;20042;-60
2021/09/21 03:20:49;;;;;;;6.60;3.78;;;7.60;99.90;;;;;;4981173;28;20116;-60
2021/09/21 03:23:14;;;;;;;;;;;7.60;99.90;;;;;;4992985;28;20490;-59
2021/09/21 03:25:40;;;;;;;6.35;3.38;;;7.60;99.90;;;;;;5020048;28;19925;-60
2021/09/21 03:28:06;;;;;;;4.38;3.00;;;7.60;99.90;;;;;;5025557;28;20072;-60
2021/09/21 03:30:32;;;;;;;5.60;3.05;;;7.60;99.90;;;;;;5025065;28;20094;-61
2021/09/21 03:32:57;;;;;;;;;;;7.60;99.90;;;;;;5025952;28;20041;-59
2021/09/21 03:35:23;;;;;;;12.32;3.63;;;7.60;99.90;;;;;;5026068;28;19924;-60
2021/09/21 03:37:48;;;;;;;5.05;3.00;;;7.60;99.90;;;;;;5022631;28;20568;-60
2021/09/21 03:40:14;;;;;;;10.05;4.03;;;7.70;99.90;;;;;;5035401;28;20041;-60
2021/09/21 03:42:40;;;;;;;;;;;7.70;99.90;;;;;;5045485;28;20044;-59
2021/09/21 03:45:06;;;;;;;3.83;3.08;;;7.70;99.90;;;;;;5045709;28;20383;-60
2021/09/21 03:47:32;;;;;;;5.15;3.70;;;7.80;99.90;;;;;;5044492;28;20044;-60
2021/09/21 03:49:57;;;;;;;;;;;7.80;99.90;;;;;;5045992;28;20398;-60
2021/09/21 03:52:23;;;;;;;4.60;3.40;;;7.80;99.90;;;;;;5045708;28;19917;-60
2021/09/21 03:54:49;;;;;;;;;;;7.80;99.90;;;;;;5047367;28;20112;-60
2021/09/21 03:57:14;;;;;;;5.07;3.35;;;7.80;99.90;;;;;;5025921;28;20389;-60
2021/09/21 03:59:40;;;;;;;;;;;7.80;99.90;;;;;;5030389;28;20049;-60
2021/09/21 04:02:05;;;;;;;6.85;3.38;;;7.80;99.90;;;;;;5020594;28;19960;-60
2021/09/21 04:04:31;;;;;;;;;;;7.80;99.90;;;;;;5026686;28;20049;-61
2021/09/21 04:06:56;;;;;;;6.47;2.80;;;7.80;99.90;;;;;;5027730;28;20302;-61
2021/09/21 04:09:22;;;;;;;;;;;7.80;99.90;;;;;;5037077;28;20116;-59
2021/09/21 04:11:47;;;;;;;5.78;3.47;;;7.80;99.90;;;;;;5028686;28;19971;-61
2021/09/21 04:14:13;;;;;;;;;;;7.80;99.90;;;;;;5026318;28;20033;-61
2021/09/21 04:16:38;;;;;;;5.05;2.92;;;7.80;99.90;;;;;;5027319;28;19927;-58
2021/09/21 04:19:04;;;;;;;;;;;7.80;99.90;;;;;;5021211;28;20030;-61
2021/09/21 04:21:29;;;;;;;4.50;3.17;;;7.90;99.90;;;;;;5028174;28;19917;-59
2021/09/21 04:23:55;;;;;;;;;;;7.80;99.90;;;;;;5029256;28;20037;-61
2021/09/21 04:26:20;;;;;;;8.27;3.30;;;7.80;99.90;;;;;;5028485;28;20561;-61
2021/09/21 04:28:46;;;;;;;8.30;3.60;;;7.90;99.90;;;;;;5029124;28;20072;-61
2021/09/21 04:31:21;;;;;;;;;;;7.90;99.90;;;;;;5028519;28;20147;-61
2021/09/21 04:33:47;;;;;;;5.60;3.25;;;7.90;99.90;;;;;;5023697;28;19928;-62
2021/09/21 04:36:12;;;;;;;;;;;7.90;99.90;;;;;;5026333;28;20048;-60
2021/09/21 04:38:39;;;;;;;5.93;2.40;;;7.90;99.90;;;;;;5027280;28;20281;-61
2021/09/21 04:41:05;;;;;;;6.07;3.40;;;8.00;99.90;;;;;;5027070;28;20041;-61
2021/09/21 04:43:31;;;;;;;5.45;3.10;;;7.90;99.90;;;;;;5027372;28;20053;-62
2021/09/21 04:45:58;;;;;;;5.13;3.10;;;8.00;99.90;;;;;;5027224;28;20453;-60
2021/09/21 04:48:23;;;;;;;9.75;4.07;;;8.00;99.90;;;;;;5028628;28;20034;-61
2021/09/21 04:50:49;;;;;;;;;;;8.00;99.90;;;;;;5027592;28;20045;-61
2021/09/21 04:53:15;;;;;;;5.88;3.25;;;8.00;99.90;;;;;;5026200;28;19952;-63
2021/09/21 04:55:40;;;;;;;;;;;8.00;99.90;;;;;;5028320;28;20053;-62
2021/09/21 04:58:06;;;;;;;7.65;4.10;;;8.10;99.90;;;;;;5027385;28;19917;-62
2021/09/21 05:00:31;;;;;;;;;;;8.10;99.90;;;;;;5028743;28;20052;-62
2021/09/21 05:02:57;;;;;;;6.97;3.58;;;8.10;99.90;;;;;;5028649;28;19940;-62
2021/09/21 05:05:23;;;;;;;;;;;8.00;99.90;;;;;;5028417;28;20095;-62
2021/09/21 05:07:49;;;;;;;6.32;3.13;;;8.10;99.90;;;;;;5029946;28;19936;-61
2021/09/21 05:10:14;;;;;;;;;;;8.10;99.90;;;;;;5023942;28;20659;-63
2021/09/21 05:12:40;;;;;;;25.83;3.65;;;8.10;99.90;;;;;;5018113;28;19925;-62
2021/09/21 05:15:07;;;;;;;6.68;3.55;;;8.00;99.90;;;;;;5025367;28;20057;-63
2021/09/21 05:17:32;;;;;;;4.70;3.05;;;8.10;99.90;;;;;;5026646;28;20045;-65
2021/09/21 05:19:58;;;;;;;;;;;8.10;99.90;;;;;;5029020;28;20167;-58
2021/09/21 05:22:23;;;;;;;73.50;36.70;;;8.20;99.90;;;;;;5028203;28;19992;-62
2021/09/21 05:24:49;;;;;;;19.70;11.65;;;8.20;99.90;;;;;;5027972;28;20041;-62
2021/09/21 05:27:15;;;;;;;41.35;22.27;;;8.10;99.90;;;;;;5026926;28;20069;-60
2021/09/21 05:29:40;;;;;;;;;;;8.10;99.90;;;;;;5027164;28;20032;-62
2021/09/21 05:32:06;;;;;;;25.10;12.20;;;8.20;99.90;;;;;;5023234;28;19952;-62
2021/09/21 05:34:32;;;;;;;;;;;8.20;99.90;;;;;;5022364;28;20116;-61
2021/09/21 05:36:57;;;;;;;87.57;50.38;;;8.30;99.90;;;;;;5018807;28;19924;-62
2021/09/21 05:39:25;;;;;;;34.38;17.08;;;8.30;99.90;;;;;;5026937;28;20388;-61
2021/09/21 05:41:51;;;;;;;15.02;7.47;;;8.30;99.90;;;;;;5016297;28;20046;-60
2021/09/21 05:44:23;;;;;;;;;;;8.30;99.90;;;;;;5020098;28;20037;-61
2021/09/21 05:46:51;;;;;;;10.57;4.82;;;8.30;99.90;;;;;;5013891;28;19936;-61
2021/09/21 05:49:20;;;;;;;7.00;3.92;;;8.30;99.90;;;;;;5023982;28;20037;-59
2021/09/21 05:51:48;;;;;;;5.35;3.17;;;8.30;99.90;;;;;;5021917;28;20120;-61
2021/09/21 05:54:14;;;;;;;;;;;8.40;99.90;;;;;;5018331;28;20120;-61
2021/09/21 05:56:48;;;;;;;7.53;3.70;;;8.30;99.90;;;;;;5017187;28;19921;-61
2021/09/21 05:59:14;;;;;;;12.02;3.45;;;8.40;99.90;;;;;;5024460;28;20513;-60
2021/09/21 06:01:47;;;;;;;10.65;3.78;;;8.40;99.90;;;;;;5025126;28;20037;-61
2021/09/21 06:04:27;;;;;;;5.90;3.72;;;8.40;99.90;;;;;;5019910;28;20873;-61
2021/09/21 06:06:53;;;;;;;;;;;8.50;99.90;;;;;;5028202;28;20038;-61
2021/09/21 06:09:37;;;;;;;8.20;3.83;;;8.50;99.90;;;;;;5028734;28;19917;-61
2021/09/21 06:12:07;;;;;;;8.63;3.92;;;8.60;99.90;;;;;;5028285;28;20200;-60
2021/09/21 06:14:36;;;;;;;6.10;4.15;;;8.60;99.90;;;;;;5029141;28;20412;-62
2021/09/21 06:17:03;;;;;;;131.13;74.35;;;8.60;99.90;;;;;;5027459;28;20139;-61
2021/09/21 06:19:31;;;;;;;34.10;18.90;;;8.60;99.90;;;;;;5029509;28;20500;-61
2021/09/21 06:21:58;;;;;;;14.02;8.85;;;8.60;99.90;;;;;;5028038;28;20037;-61
2021/09/21 06:24:26;;;;;;;23.83;12.82;;;8.70;99.90;;;;;;5030381;28;20095;-61
2021/09/21 06:26:57;;;;;;;11.20;6.15;;;8.70;99.90;;;;;;5028066;28;20128;-61
2021/09/21 06:29:25;;;;;;;10.13;4.53;;;8.70;99.90;;;;;;5028423;28;20041;-60
2021/09/21 06:31:53;;;;;;;18.90;10.52;;;8.80;99.90;;;;;;5043807;28;20041;-62
2021/09/21 06:34:34;;;;;;;52.45;28.70;;;8.80;99.90;;;;;;5028164;28;20513;-64
2021/09/21 06:37:03;;;;;;;34.85;16.73;;;8.90;99.90;;;;;;5028444;28;20119;-63
2021/09/21 06:39:32;;;;;;;13.20;7.10;;;8.90;99.90;;;;;;5039072;28;20440;-63
2021/09/21 06:42:00;;;;;;;33.67;22.48;;;9.00;99.90;;;;;;5015292;28;20057;-62
2021/09/21 06:44:26;;;;;;;12.75;8.38;;;9.00;99.90;;;;;;5028068;28;20133;-61
2021/09/21 06:46:52;;;;;;;;;;;9.00;99.90;;;;;;5027577;28;20501;-64
2021/09/21 06:49:17;;;;;;;10.98;5.15;;;9.10;99.90;;;;;;5025720;28;19991;-63
2021/09/21 06:51:43;;;;;;;;;;;9.10;99.90;;;;;;5027813;28;20041;-62
2021/09/21 06:54:08;;;;;;;9.02;4.30;;;9.10;99.90;;;;;;5026601;28;19921;-63
2021/09/21 06:56:34;;;;;;;;;;;9.20;99.90;;;;;;5027374;28;20146;-62
2021/09/21 06:59:00;;;;;;;9.13;3.80;;;9.10;99.90;;;;;;5023674;28;19921;-63
2021/09/21 07:01:28;;;;;;;;;;;9.20;99.90;;;;;;5020715;28;20041;-61
2021/09/21 07:03:53;;;;;;;10.25;6.20;;;9.20;99.90;;;;;;5028230;28;19973;-62
2021/09/21 07:06:19;;;;;;;;;;;9.20;99.90;;;;;;5008780;28;20061;-62
2021/09/21 07:08:45;;;;;;;8.07;4.13;;;9.30;99.90;;;;;;5027314;28;19928;-62
2021/09/21 07:11:10;;;;;;;;;;;9.40;99.90;;;;;;5029752;28;20460;-62
2021/09/21 07:13:36;;;;;;;27.55;15.95;;;9.40;99.90;;;;;;5029232;28;19917;-63
2021/09/21 07:16:01;;;;;;;;;;;9.50;99.90;;;;;;5026889;28;20045;-63
2021/09/21 07:18:27;;;;;;;10.73;5.22;;;9.50;99.90;;;;;;5028484;28;19917;-62
2021/09/21 07:20:53;;;;;;;8.15;5.00;;;9.60;99.90;;;;;;5019738;28;20029;-63
2021/09/21 07:23:19;;;;;;;;;;;9.60;99.90;;;;;;5023913;28;20716;-62
2021/09/21 07:25:44;;;;;;;7.05;4.05;;;9.70;99.90;;;;;;5025674;28;20708;-63
2021/09/21 07:28:10;;;;;;;;;;;9.70;99.90;;;;;;5050634;28;20056;-61
2021/09/21 07:30:36;;;;;;;14.10;6.00;;;9.80;99.90;;;;;;5039639;28;20327;-61
2021/09/21 07:33:01;;;;;;;;;;;9.90;99.90;;;;;;5029903;28;20137;-63
2021/09/21 07:35:27;;;;;;;13.30;6.22;;;9.90;99.90;;;;;;5028989;28;19960;-62
2021/09/21 07:37:53;;;;;;;;;;;10.00;99.90;;;;;;5022293;28;20073;-61
2021/09/21 07:40:21;;;;;;;8.82;4.20;;;10.10;99.90;;;;;;5044766;28;20687;-61
2021/09/21 07:42:50;;;;;;;8.23;4.53;;;10.20;99.90;;;;;;5031376;28;20042;-62
2021/09/21 07:45:17;;;;;;;7.55;4.72;;;10.20;99.90;;;;;;5030432;28;20052;-62
2021/09/21 07:47:43;;;;;;;11.85;4.65;;;10.30;99.90;;;;;;5030532;28;20128;-62
2021/09/21 07:50:10;;;;;;;;;;;10.50;99.90;;;;;;5029967;28;20160;-62
2021/09/21 07:52:36;;;;;;;12.43;4.38;;;10.50;99.90;;;;;;5031124;28;19917;-61
2021/09/21 07:55:02;;;;;;;;;;;10.50;99.90;;;;;;5031779;28;20052;-60
2021/09/21 07:57:28;;;;;;;8.10;3.65;;;10.60;99.90;;;;;;5030445;28;19917;-61
2021/09/21 07:59:53;;;;;;;;;;;10.70;99.90;;;;;;5030988;28;20043;-62
2021/09/21 08:02:19;;;;;;;7.05;3.33;;;10.80;99.90;;;;;;5046654;28;19921;-62
2021/09/21 08:04:44;;;;;;;;;;;10.90;99.90;;;;;;5051355;28;20048;-62
2021/09/21 08:07:10;;;;;;;4.90;3.00;;;11.00;99.90;;;;;;5049673;28;20352;-62
2021/09/21 08:09:37;;;;;;;;;;;11.10;99.90;;;;;;5050911;28;20037;-62
2021/09/21 08:12:03;;;;;;;9.02;3.15;;;11.20;99.90;;;;;;5049921;28;19924;-62
2021/09/21 08:14:32;;;;;;;9.55;3.45;;;11.70;99.90;;;;;;5050774;28;20516;-61
2021/09/21 08:16:57;;;;;;;10.30;4.60;;;13.00;99.80;;;;;;5033975;28;20068;-61
2021/09/21 08:19:23;;;;;;;;;;;14.40;97.20;;;;;;5030297;28;20096;-61
2021/09/21 08:21:48;;;;;;;5.10;3.22;;;15.00;93.60;;;;;;5029456;28;20545;-63
2021/09/21 08:24:14;;;;;;;;;;;14.60;92.70;;;;;;5032383;28;20513;-61
2021/09/21 08:26:40;;;;;;;4.05;2.50;;;14.10;95.70;;;;;;5029143;28;19925;-62
2021/09/21 08:29:05;;;;;;;;;;;13.50;97.40;;;;;;5014099;28;20038;-62
2021/09/21 08:31:31;;;;;;;7.25;3.28;;;13.00;94.90;;;;;;5011705;28;19918;-62
2021/09/21 08:33:56;;;;;;;;;;;12.80;96.60;;;;;;5011036;28;20093;-62
2021/09/21 08:36:23;;;;;;;6.00;2.97;;;12.70;96.70;;;;;;5008376;28;19975;-62
2021/09/21 08:38:50;;;;;;;8.30;5.28;;;12.60;95.90;;;;;;5034882;28;20040;-61
2021/09/21 08:41:16;;;;;;;9.13;3.50;;;12.60;97.20;;;;;;5048763;28;20126;-62
2021/09/21 08:43:41;;;;;;;;;;;12.50;95.80;;;;;;5049731;28;20156;-60
2021/09/21 08:46:07;;;;;;;3.65;2.80;;;12.50;97.10;;;;;;5047892;28;20014;-62
2021/09/21 08:48:32;;;;;;;;;;;12.60;95.90;;;;;;5038875;28;20045;-62
2021/09/21 08:50:58;;;;;;;6.10;3.33;;;12.60;94.90;;;;;;5028759;28;20380;-62
2021/09/21 08:53:24;;;;;;;;;;;12.50;95.00;;;;;;5030058;28;20052;-62
2021/09/21 08:55:50;;;;;;;7.07;3.42;;;12.60;95.50;;;;;;5025883;28;19917;-62
2021/09/21 08:58:23;;;;;;;5.60;3.70;;;12.70;95.30;;;;;;5029608;28;20047;-60
2021/09/21 09:00:48;;;;;;;6.57;3.33;;;12.80;95.60;;;;;;5028171;28;20042;-62
2021/09/21 09:03:14;;;;;;;;;;;12.60;95.80;;;;;;5043956;28;20042;-59
2021/09/21 09:05:46;;;;;;;33.47;5.90;;;12.70;96.20;;;;;;5028324;28;19921;-61
2021/09/21 09:08:12;;;;;;;10.30;4.07;;;12.60;96.50;;;;;;5058302;28;20041;-62
2021/09/21 09:10:38;;;;;;;11.52;4.65;;;12.40;96.00;;;;;;5041167;28;20044;-61
2021/09/21 09:13:15;;;;;;;5.50;3.50;;;12.30;96.20;;;;;;5048242;28;20068;-61
2021/09/21 09:15:40;;;;;;;5.00;3.17;;;12.40;96.10;;;;;;5047077;28;20551;-62
2021/09/21 09:18:06;;;;;;;;;;;12.30;96.00;;;;;;5042833;28;20041;-62
2021/09/21 09:20:43;;;;;;;14.15;5.72;;;12.30;95.80;;;;;;5022681;28;19917;-62
2021/09/21 09:23:10;;;;;;;8.18;4.45;;;12.40;97.30;;;;;;5025474;28;20044;-61
2021/09/21 09:25:47;;;;;;;13.45;4.68;;;12.20;96.90;;;;;;5028607;28;20038;-62
2021/09/21 09:28:25;;;;;;;22.13;7.05;;;12.30;98.50;;;;;;5028161;28;20072;-62
2021/09/21 09:30:54;;;;;;;10.18;4.40;;;12.30;97.80;;;;;;5025190;28;20063;-62
2021/09/21 09:33:21;;;;;;;7.90;4.32;;;12.40;98.30;;;;;;5044214;28;20033;-62
2021/09/21 09:35:50;;;;;;;7.10;3.35;;;12.40;96.80;;;;;;5026223;28;20409;-62
2021/09/21 09:38:21;;;;;;;11.52;3.65;;;12.40;97.50;;;;;;5046897;28;20114;-62
2021/09/21 09:40:48;;;;;;;7.88;2.80;;;12.30;97.10;;;;;;5037936;28;20592;-62
2021/09/21 09:43:16;;;;;;;7.68;3.17;;;12.30;98.10;;;;;;5026059;28;20041;-62
2021/09/21 09:45:44;;;;;;;6.15;3.13;;;12.30;98.10;;;;;;5028234;28;20489;-62
2021/09/21 09:48:14;;;;;;;6.13;2.90;;;12.40;98.50;;;;;;5027519;28;20041;-62
2021/09/21 09:50:43;;;;;;;4.78;2.72;;;12.50;98.00;;;;;;5028185;28;20099;-62
2021/09/21 09:53:14;;;;;;;8.80;3.13;;;12.50;98.10;;;;;;5026609;28;20044;-62
2021/09/21 09:55:45;;;;;;;4.95;2.60;;;12.50;98.30;;;;;;5028771;28;20125;-62
2021/09/21 09:58:11;;;;;;;6.10;2.72;;;12.50;97.80;;;;;;5028594;28;20363;-62
2021/09/21 10:00:37;;;;;;;6.82;2.08;;;12.50;97.50;;;;;;5055433;28;20684;-63
2021/09/21 10:03:03;;;;;;;;;;;12.50;97.50;;;;;;5025858;28;20124;-63
2021/09/21 10:05:31;;;;;;;3.42;1.85;;;12.30;95.50;;;;;;5039190;28;20372;-62
2021/09/21 10:07:58;;;;;;;6.38;1.55;;;12.30;97.80;;;;;;5024102;28;20091;-62
2021/09/21 10:10:27;;;;;;;3.70;1.60;;;12.40;97.50;;;;;;5028123;28;20107;-62
2021/09/21 10:12:55;;;;;;;3.10;2.17;;;12.40;95.90;;;;;;5021802;28;20042;-63
2021/09/21 10:15:22;;;;;;;3.28;1.70;;;12.40;95.90;;;;;;5006982;28;20057;-62
2021/09/21 10:17:50;;;;;;;3.35;1.90;;;12.30;96.30;;;;;;5013892;28;20124;-61
2021/09/21 10:20:16;;;;;;;2.75;1.40;;;12.40;96.10;;;;;;5025694;28;20072;-63
2021/09/21 10:22:49;;;;;;;;;;;12.50;94.70;;;;;;5028655;28;20087;-62
2021/09/21 10:25:15;;;;;;;14.57;8.32;;;12.60;96.00;;;;;;5029323;28;19921;-63
2021/09/21 10:27:40;;;;;;;;;;;12.90;95.50;;;;;;5021671;28;20065;-62
2021/09/21 10:30:10;;;;;;;3.95;1.88;;;13.20;95.50;;;;;;5007990;28;19921;-63
2021/09/21 10:32:44;;;;;;;5.05;1.58;;;13.30;96.10;;;;;;5023223;28;20048;-63
2021/09/21 10:35:18;;;;;;;4.55;2.03;;;13.30;95.90;;;;;;5026920;28;20076;-62
2021/09/21 10:37:55;;;;;;;6.25;2.50;;;13.40;94.30;;;;;;5026540;28;20053;-63
2021/09/21 10:40:21;;;;;;;14.13;8.27;;;13.50;95.30;;;;;;5028406;28;20548;-67
2021/09/21 10:42:56;;;;;;;5.55;2.97;;;13.60;94.50;;;;;;5055469;22;20045;-64
2021/09/21 10:45:26;;;;;;;5.60;3.30;;;13.60;94.00;;;;;;5022156;23;20709;-65
2021/09/21 10:48:05;;;;;;;4.53;3.28;;;13.70;94.60;;;;;;5029195;22;20084;-65
2021/09/21 10:50:38;;;;;;;7.18;4.97;;;13.70;93.90;;;;;;5019751;28;20057;-66
2021/09/21 10:53:08;;;;;;;18.08;11.63;;;13.80;93.90;;;;;;5027888;28;20041;-66
2021/09/21 10:55:39;;;;;;;4.00;3.15;;;13.80;94.40;;;;;;5026420;28;20041;-65
2021/09/21 10:58:16;;;;;;;2.75;1.75;;;13.90;95.00;;;;;;5024799;28;20096;-65
2021/09/21 11:00:41;;;;;;;2.53;1.10;;;13.90;93.20;;;;;;5020238;28;20128;-67
2021/09/21 11:03:12;;;;;;;;;;;13.80;93.80;;;;;;5005566;28;20046;-63
2021/09/21 11:05:37;;;;;;;4.05;1.85;;;13.90;94.60;;;;;;5005017;28;19918;-63
2021/09/21 11:08:04;;;;;;;;;;;13.80;93.30;;;;;;5003914;28;20041;-63
2021/09/21 11:10:32;;;;;;;26.17;15.23;;;13.70;94.50;;;;;;5006654;28;19978;-64
2021/09/21 11:12:58;;;;;;;3.00;1.70;;;13.80;94.60;;;;;;5006125;28;20057;-63
2021/09/21 11:15:27;;;;;;;2.22;1.25;;;13.70;94.40;;;;;;5006999;28;20042;-63
2021/09/21 11:18:08;;;;;;;1.83;1.20;;;13.80;95.00;;;;;;5016345;28;20072;-63
2021/09/21 11:20:47;;;;;;;1.27;0.98;;;13.80;93.80;;;;;;5014091;28;20134;-63
2021/09/21 11:23:14;;;;;;;1.08;0.80;;;13.90;93.00;;;;;;5015598;28;20108;-63
2021/09/21 11:25:40;;;;;;;2.13;1.02;;;14.00;94.40;;;;;;5017028;28;20038;-64
2021/09/21 11:28:06;;;;;;;;;;;14.00;93.80;;;;;;5023360;28;20053;-63
2021/09/21 11:30:31;;;;;;;1.55;1.10;;;13.80;93.80;;;;;;5025696;28;20016;-63
2021/09/21 11:32:57;;;;;;;;;;;13.70;93.80;;;;;;5026248;28;20128;-63
2021/09/21 11:35:22;;;;;;;1.85;0.98;;;13.70;95.40;;;;;;5026242;28;20385;-61
2021/09/21 11:37:50;;;;;;;;;;;13.70;94.00;;;;;;5025557;28;20052;-64
2021/09/21 11:40:30;;;;;;;2.10;1.15;;;13.60;95.20;;;;;;5024937;28;19921;-63
2021/09/21 11:42:57;;;;;;;4.43;1.00;;;13.60;94.00;;;;;;5024895;28;20038;-63
2021/09/21 11:45:23;;;;;;;1.45;1.20;;;13.50;93.70;;;;;;5025480;28;20080;-63
2021/09/21 11:47:49;;;;;;;;;;;13.70;94.50;;;;;;5025615;28;20081;-63
2021/09/21 11:50:16;;;;;;;1.70;0.95;;;13.70;95.40;;;;;;5025104;28;19974;-63
2021/09/21 11:52:50;;;;;;;1.30;0.90;;;13.90;96.50;;;;;;5021325;28;20120;-63
2021/09/21 11:55:18;;;;;;;2.30;1.23;;;13.90;95.10;;;;;;5018764;28;20041;-63
2021/09/21 11:57:45;;;;;;;3.40;1.02;;;14.00;94.20;;;;;;5024600;28;20072;-63
2021/09/21 12:00:25;;;;;;;1.02;0.90;;;14.00;94.30;;;;;;5024591;28;20073;-64
2021/09/21 12:02:59;;;;;;;1.45;0.90;;;14.10;94.30;;;;;;5008006;28;20045;-64
2021/09/21 12:05:26;;;;;;;2.55;1.17;;;14.20;94.00;;;;;;5020245;28;20038;-64
2021/09/21 12:07:52;;;;;;;1.58;1.05;;;14.20;94.10;;;;;;5020319;28;20128;-64
2021/09/21 12:10:19;;;;;;;2.08;1.10;;;14.20;93.20;;;;;;5022194;28;20047;-64
2021/09/21 12:12:45;;;;;;;5.13;1.23;;;14.00;93.10;;;;;;5021152;28;20037;-64
2021/09/21 12:15:12;;;;;;;;;;;14.00;94.00;;;;;;5018640;28;20046;-64
2021/09/21 12:17:39;;;;;;;;;;;14.00;93.30;;;;;;5008456;28;19921;-64
2021/09/21 12:20:06;;;;;;;2.22;0.98;;;14.20;94.00;;;;;;5008866;28;19921;-63
2021/09/21 12:22:31;;;;;;;2.47;0.73;;;14.10;93.80;;;;;;5017666;28;20034;-63
2021/09/21 12:25:10;;;;;;;;;;;14.20;94.10;;;;;;5024830;28;20391;-62
2021/09/21 12:27:37;;;;;;;2.38;1.00;;;14.20;95.90;;;;;;5024667;28;19940;-62
2021/09/21 12:30:06;;;;;;;1.95;1.10;;;14.10;94.20;;;;;;5025779;28;20049;-63
2021/09/21 12:32:31;;;;;;;3.60;1.55;;;14.10;94.20;;;;;;5009475;28;20095;-62
2021/09/21 12:35:05;;;;;;;;;;;14.20;94.70;;;;;;5028671;28;20041;-62
2021/09/21 12:37:41;;;;;;;1.92;1.05;;;14.30;94.50;;;;;;5028360;28;19921;-63
2021/09/21 12:40:14;;;;;;;;;;;14.30;94.50;;;;;;5028127;28;20046;-63
2021/09/21 12:42:43;;;;;;;4.03;1.15;;;14.20;93.50;;;;;;5028261;28;20335;-63
2021/09/21 12:45:11;;;;;;;2.15;0.80;;;14.20;93.70;;;;;;5028741;28;20042;-63
2021/09/21 12:47:39;;;;;;;4.57;0.95;;;14.40;94.40;;;;;;5027177;28;20456;-63
2021/09/21 12:50:17;;;;;;;7.03;2.58;;;14.40;95.10;;;;;;5027622;28;20099;-63
2021/09/21 12:52:55;;;;;;;9.88;3.35;;;14.40;95.10;;;;;;5028196;28;20389;-62
2021/09/21 12:55:28;;;;;;;4.80;1.90;;;14.40;95.20;;;;;;5028794;28;20033;-62
2021/09/21 12:57:55;;;;;;;9.23;2.70;;;14.40;94.60;;;;;;5024568;28;20061;-63
2021/09/21 13:00:21;;;;;;;7.68;2.85;;;14.50;94.60;;;;;;5006581;28;20046;-63
2021/09/21 13:02:46;;;;;;;;;;;14.60;95.30;;;;;;5009708;28;20037;-62
2021/09/21 13:05:13;;;;;;;7.40;2.70;;;14.60;94.40;;;;;;5008871;28;19921;-63
2021/09/21 13:07:39;;;;;;;6.05;2.85;;;14.50;95.40;;;;;;5014935;28;20045;-63
2021/09/21 13:10:04;;;;;;;;;;;14.50;95.60;;;;;;5028010;28;20034;-63
2021/09/21 13:12:30;;;;;;;6.45;2.97;;;14.40;94.40;;;;;;5027965;28;19940;-63
2021/09/21 13:14:56;;;;;;;;;;;14.30;94.70;;;;;;5027949;28;20078;-63
2021/09/21 13:17:21;;;;;;;8.55;2.83;;;14.20;95.50;;;;;;5026513;28;19933;-63
2021/09/21 13:19:47;;;;;;;;;;;14.20;95.70;;;;;;5027762;28;20049;-63
2021/09/21 13:22:12;;;;;;;10.07;4.45;;;14.20;98.00;;;;;;5028362;28;19917;-62
2021/09/21 13:24:38;;;;;;;;;;;14.20;97.10;;;;;;5028552;28;20091;-62
2021/09/21 13:27:03;;;;;;;9.27;3.83;;;14.20;96.60;;;;;;5009335;28;19921;-63